createdAt,value
2018-06-19T00:01:14.015Z,16.80
2018-06-19T00:03:43.687Z,16.70
2018-06-19T00:06:12.876Z,16.70
2018-06-19T00:08:41.808Z,16.70
2018-06-19T00:11:11.489Z,16.70
2018-06-19T00:13:40.885Z,16.70
2018-06-19T00:16:10.014Z,16.80
2018-06-19T00:18:41.234Z,16.80
2018-06-19T00:21:12.502Z,16.80
2018-06-19T00:23:41.504Z,16.70
2018-06-19T00:26:10.518Z,16.60
2018-06-19T00:28:41.951Z,16.60
2018-06-19T00:31:10.922Z,16.50
2018-06-19T00:33:39.815Z,16.40
2018-06-19T00:36:08.744Z,16.30
2018-06-19T00:38:37.654Z,16.30
2018-06-19T00:43:35.094Z,16.10
2018-06-19T00:46:04.109Z,16.00
2018-06-19T00:51:01.547Z,16.00
2018-06-19T00:53:30.600Z,16.10
2018-06-19T00:56:10.781Z,16.10
2018-06-19T00:58:39.713Z,16.00
2018-06-19T01:01:08.805Z,16.00
2018-06-19T01:03:37.749Z,16.00
2018-06-19T01:06:06.714Z,16.00
2018-06-19T01:08:35.749Z,16.10
2018-06-19T01:11:04.709Z,16.10
2018-06-19T01:13:33.629Z,16.10
2018-06-19T01:16:02.589Z,16.10
2018-06-19T01:18:31.498Z,15.90
2018-06-19T01:21:00.446Z,15.90
2018-06-19T01:28:26.619Z,15.70
2018-06-19T01:30:55.573Z,15.70
2018-06-19T01:33:24.506Z,15.60
2018-06-19T01:35:53.464Z,15.60
2018-06-19T01:38:22.396Z,15.60
2018-06-19T01:43:20.067Z,15.50
2018-06-19T01:45:49.026Z,15.30
2018-06-19T01:48:17.991Z,15.30
2018-06-19T01:50:46.884Z,15.30
2018-06-19T01:53:15.808Z,15.30
2018-06-19T01:55:44.746Z,15.40
2018-06-19T01:58:13.705Z,15.50
2018-06-19T02:03:11.175Z,15.60
2018-06-19T02:05:40.148Z,15.60
2018-06-19T02:10:37.682Z,15.50
2018-06-19T02:13:06.840Z,15.50
2018-06-19T02:15:35.809Z,15.40
2018-06-19T02:18:04.887Z,15.40
2018-06-19T02:20:33.811Z,15.40
2018-06-19T02:25:31.284Z,15.30
2018-06-19T02:30:28.764Z,15.30
2018-06-19T02:32:57.695Z,15.30
2018-06-19T02:35:26.645Z,15.20
2018-06-19T02:37:55.625Z,15.10
2018-06-19T02:42:53.075Z,14.80
2018-06-19T02:45:22.103Z,14.80
2018-06-19T02:47:51.043Z,14.70
2018-06-19T02:50:19.991Z,14.70
2018-06-19T02:52:48.911Z,14.80
2018-06-19T02:55:17.850Z,14.80
2018-06-19T03:00:15.384Z,14.70
2018-06-19T03:02:45.581Z,14.60
2018-06-19T03:05:14.582Z,14.50
2018-06-19T03:07:43.559Z,14.50
2018-06-19T03:10:12.570Z,14.50
2018-06-19T03:12:41.524Z,14.60
2018-06-19T03:17:39.193Z,14.60
2018-06-19T03:20:08.163Z,14.70
2018-06-19T03:22:37.068Z,14.70
2018-06-19T03:25:06.013Z,14.70
2018-06-19T03:27:34.963Z,14.80
2018-06-19T03:30:04.023Z,14.80
2018-06-19T03:32:32.959Z,14.80
2018-06-19T03:35:01.979Z,14.70
2018-06-19T03:37:30.978Z,14.70
2018-06-19T03:39:59.954Z,14.60
2018-06-19T03:42:28.968Z,14.60
2018-06-19T03:44:58.048Z,14.60
2018-06-19T03:47:26.952Z,14.50
2018-06-19T03:49:57.004Z,14.50
2018-06-19T03:52:25.957Z,14.60
2018-06-19T03:54:55.104Z,14.50
2018-06-19T03:59:52.524Z,14.60
2018-06-19T04:02:21.448Z,14.50
2018-06-19T04:04:50.632Z,14.40
2018-06-19T04:07:19.578Z,14.40
2018-06-19T04:09:48.513Z,14.50
2018-06-19T04:12:17.467Z,14.50
2018-06-19T04:14:46.401Z,14.60
2018-06-19T04:17:20.551Z,14.50
2018-06-19T04:19:49.471Z,14.40
2018-06-19T04:22:18.397Z,14.30
2018-06-19T04:24:47.304Z,14.20
2018-06-19T04:27:16.232Z,14.20
2018-06-19T04:29:45.176Z,14.20
2018-06-19T04:32:14.271Z,14.20
2018-06-19T04:34:43.172Z,14.10
2018-06-19T04:37:12.176Z,14.10
2018-06-19T04:42:09.751Z,14.30
2018-06-19T04:44:38.824Z,14.40
2018-06-19T04:47:07.854Z,14.30
2018-06-19T04:52:05.372Z,14.10
2018-06-19T04:54:34.348Z,14.00
2018-06-19T04:57:03.248Z,14.00
2018-06-19T04:59:32.176Z,14.00
2018-06-19T05:02:01.129Z,14.00
2018-06-19T05:04:30.033Z,14.00
2018-06-19T05:06:58.977Z,14.10
2018-06-19T05:09:27.863Z,14.20
2018-06-19T05:11:56.785Z,14.20
2018-06-19T05:14:25.739Z,14.30
2018-06-19T05:16:54.686Z,14.40
2018-06-19T05:19:23.599Z,14.40
2018-06-19T05:21:52.816Z,14.40
2018-06-19T05:24:21.812Z,14.40
2018-06-19T05:26:50.759Z,14.50
2018-06-19T05:29:19.671Z,14.50
2018-06-19T05:31:48.633Z,14.60
2018-06-19T05:34:17.596Z,14.70
2018-06-19T05:36:46.520Z,14.80
2018-06-19T05:39:15.448Z,14.90
2018-06-19T05:44:13.142Z,15.10
2018-06-19T05:46:41.995Z,15.10
2018-06-19T05:49:10.922Z,15.20
2018-06-19T05:51:39.906Z,15.20
2018-06-19T05:54:08.835Z,15.30
2018-06-19T05:56:37.875Z,15.30
2018-06-19T06:01:35.420Z,15.50
2018-06-19T06:04:04.407Z,15.50
2018-06-19T06:06:33.420Z,15.50
2018-06-19T06:09:02.467Z,15.60
2018-06-19T06:11:31.389Z,15.70
2018-06-19T06:14:00.346Z,15.90
2018-06-19T06:16:29.471Z,16.00
2018-06-19T06:18:58.484Z,16.20
2018-06-19T06:21:27.497Z,16.40
2018-06-19T06:26:24.967Z,16.60
2018-06-19T06:28:53.935Z,16.70
2018-06-19T06:31:22.892Z,16.90
2018-06-19T06:33:52.142Z,17.00
2018-06-19T06:36:21.054Z,17.20
2018-06-19T06:38:49.971Z,17.30
2018-06-19T06:41:18.965Z,17.40
2018-06-19T06:43:47.976Z,17.50
2018-06-19T06:46:16.985Z,17.60
2018-06-19T06:48:45.872Z,17.70
2018-06-19T06:51:14.832Z,17.80
2018-06-19T06:53:43.789Z,17.90
2018-06-19T06:56:12.790Z,18.00
2018-06-19T06:58:41.773Z,18.10
2018-06-19T07:01:10.729Z,18.20
2018-06-19T07:03:39.747Z,18.30
2018-06-19T07:08:38.205Z,18.60
2018-06-19T07:11:07.314Z,18.70
2018-06-19T07:13:36.263Z,18.70
2018-06-19T07:16:05.365Z,18.80
2018-06-19T07:18:34.386Z,18.80
2018-06-19T07:21:03.374Z,18.90
2018-06-19T07:23:32.467Z,19.10
2018-06-19T07:26:01.536Z,19.10
2018-06-19T07:28:30.354Z,19.30
2018-06-19T07:30:59.294Z,19.40
2018-06-19T07:33:28.254Z,19.50
2018-06-19T07:35:57.227Z,19.60
2018-06-19T07:38:26.236Z,19.70
2018-06-19T07:40:55.193Z,19.80
2018-06-19T07:43:24.154Z,20.00
2018-06-19T07:48:22.454Z,20.20
2018-06-19T07:50:51.353Z,20.30
2018-06-19T07:53:20.295Z,20.30
2018-06-19T07:55:49.271Z,20.30
2018-06-19T07:58:18.192Z,20.40
2018-06-19T08:00:47.176Z,20.50
2018-06-19T08:03:16.079Z,20.60
2018-06-19T08:05:45.064Z,20.70
2018-06-19T08:08:14.022Z,20.80
2018-06-19T08:10:43.046Z,21.00
2018-06-19T08:13:12.052Z,21.10
2018-06-19T08:15:40.969Z,21.10
2018-06-19T08:18:09.947Z,21.10
2018-06-19T08:20:38.925Z,21.20
2018-06-19T08:23:08.025Z,21.30
2018-06-19T08:25:37.031Z,21.40
2018-06-19T08:28:06.049Z,21.50
2018-06-19T08:30:35.040Z,21.60
2018-06-19T08:33:04.010Z,21.70
2018-06-19T08:35:33.005Z,21.90
2018-06-19T08:38:02.009Z,22.00
2018-06-19T08:40:30.976Z,22.20
2018-06-19T08:42:59.939Z,22.40
2018-06-19T08:45:28.907Z,22.50
2018-06-19T08:47:57.923Z,22.70
2018-06-19T08:50:26.868Z,22.80
2018-06-19T08:52:55.879Z,23.00
2018-06-19T08:55:25.157Z,23.10
2018-06-19T08:57:54.270Z,23.30
2018-06-19T09:00:23.580Z,23.40
2018-06-19T09:02:52.686Z,23.50
2018-06-19T09:05:21.857Z,23.60
2018-06-19T09:07:50.966Z,23.70
2018-06-19T09:10:19.975Z,23.70
2018-06-19T09:12:48.934Z,23.80
2018-06-19T09:15:17.931Z,23.90
2018-06-19T09:17:47.024Z,24.00
2018-06-19T09:20:16.026Z,24.20
2018-06-19T09:22:44.986Z,24.20
2018-06-19T09:25:13.928Z,24.30
2018-06-19T09:27:42.857Z,24.30
2018-06-19T09:30:11.749Z,24.60
2018-06-19T09:32:40.632Z,24.70
2018-06-19T09:35:09.648Z,24.80
2018-06-19T09:37:38.659Z,24.90
2018-06-19T09:40:07.636Z,24.90
2018-06-19T09:42:36.942Z,25.00
2018-06-19T09:45:06.167Z,25.00
2018-06-19T09:47:35.156Z,25.10
2018-06-19T09:50:04.311Z,25.20
2018-06-19T09:52:33.392Z,25.20
2018-06-19T09:55:02.555Z,25.30
2018-06-19T09:57:31.667Z,25.30
2018-06-19T10:00:00.740Z,25.30
2018-06-19T10:02:29.686Z,25.30
2018-06-19T10:04:58.786Z,25.30
2018-06-19T10:07:27.745Z,25.40
2018-06-19T10:09:56.769Z,25.50
2018-06-19T10:12:25.768Z,25.70
2018-06-19T10:14:54.711Z,25.80
2018-06-19T10:19:54.383Z,26.00
2018-06-19T10:22:23.370Z,26.10
2018-06-19T10:24:52.333Z,26.20
2018-06-19T10:27:21.310Z,26.20
2018-06-19T10:32:18.837Z,26.40
2018-06-19T10:34:47.858Z,26.40
2018-06-19T10:37:16.771Z,26.30
2018-06-19T10:42:14.511Z,26.40
2018-06-19T10:44:43.433Z,26.50
2018-06-19T10:47:12.434Z,26.50
2018-06-19T10:52:09.919Z,26.30
2018-06-19T10:54:39.083Z,26.20
2018-06-19T10:57:08.229Z,26.10
2018-06-19T10:59:37.224Z,26.10
2018-06-19T11:02:06.149Z,26.30
2018-06-19T11:04:35.099Z,26.50
2018-06-19T11:07:04.089Z,26.40
2018-06-19T11:09:33.037Z,26.60
2018-06-19T11:12:02.101Z,26.90
2018-06-19T11:14:31.180Z,27.00
2018-06-19T11:17:00.137Z,27.10
2018-06-19T11:24:26.195Z,27.30
2018-06-19T11:29:23.668Z,27.30
2018-06-19T11:34:21.183Z,27.50
2018-06-19T11:36:50.177Z,27.70
2018-06-19T11:39:19.112Z,28.00
2018-06-19T11:44:16.593Z,28.00
2018-06-19T11:49:14.136Z,27.90
2018-06-19T11:51:43.083Z,27.90
2018-06-19T11:54:12.131Z,27.80
2018-06-19T11:56:41.338Z,27.70
2018-06-19T11:59:10.264Z,27.90
2018-06-19T12:01:39.252Z,28.10
2018-06-19T12:04:08.194Z,28.30
2018-06-19T12:06:37.249Z,28.50
2018-06-19T12:09:07.276Z,28.40
2018-06-19T12:11:36.285Z,28.30
2018-06-19T12:14:05.313Z,28.20
2018-06-19T12:16:34.518Z,28.00
2018-06-19T12:21:31.990Z,28.10
2018-06-19T12:26:29.664Z,28.20
2018-06-19T12:31:27.102Z,28.20
2018-06-19T12:33:56.105Z,28.40
2018-06-19T12:36:25.187Z,28.30
2018-06-19T12:38:54.147Z,28.20
2018-06-19T12:41:24.098Z,28.10
2018-06-19T12:43:53.115Z,28.10
2018-06-19T12:46:22.092Z,28.00
2018-06-19T12:48:51.004Z,28.00
2018-06-19T12:55:37.371Z,28.40
2018-06-19T12:58:06.396Z,28.60
2018-06-19T13:00:35.345Z,28.70
2018-06-19T13:03:15.307Z,28.90
2018-06-19T13:05:55.066Z,29.10
2018-06-19T13:08:24.168Z,29.20
2018-06-19T13:10:53.115Z,29.30
2018-06-19T13:13:33.050Z,29.30
2018-06-19T13:18:42.411Z,29.10
2018-06-19T13:21:11.386Z,29.00
2018-06-19T13:23:40.362Z,29.00
2018-06-19T13:26:09.309Z,28.90
2018-06-19T13:29:52.756Z,28.90
2018-06-19T13:32:21.837Z,28.80
2018-06-19T13:34:50.816Z,29.00
2018-06-19T13:37:19.803Z,29.10
2018-06-19T13:40:59.672Z,29.10
2018-06-19T13:43:39.740Z,29.10
2018-06-19T13:46:09.255Z,29.00
2018-06-19T13:48:38.605Z,29.00
2018-06-19T13:53:36.262Z,29.30
2018-06-19T13:57:21.068Z,29.40
2018-06-19T13:59:50.037Z,29.50
2018-06-19T14:04:48.102Z,29.30
2018-06-19T14:07:17.223Z,29.10
2018-06-19T14:10:03.408Z,29.00
2018-06-19T14:15:45.821Z,28.80
2018-06-19T14:18:15.639Z,29.00
2018-06-19T14:20:44.824Z,29.10
2018-06-19T14:23:14.164Z,29.10
2018-06-19T14:25:43.206Z,29.00
2018-06-19T14:28:12.261Z,28.90
2018-06-19T14:30:41.361Z,28.90
2018-06-19T14:33:10.445Z,28.90
2018-06-19T14:35:39.486Z,29.10
2018-06-19T14:38:08.473Z,29.20
2018-06-19T14:40:37.464Z,29.40
2018-06-19T14:43:06.388Z,29.60
2018-06-19T14:45:35.379Z,29.70
2018-06-19T14:53:01.588Z,29.50
2018-06-19T14:55:30.627Z,29.40
2018-06-19T14:57:59.723Z,29.40
2018-06-19T15:02:57.354Z,29.50
2018-06-19T15:05:26.299Z,29.60
2018-06-19T15:10:24.622Z,29.60
2018-06-19T15:12:53.611Z,29.60
2018-06-19T15:15:22.673Z,29.70
2018-06-19T15:20:20.117Z,29.80
2018-06-19T15:22:49.101Z,30.00
2018-06-19T15:25:18.126Z,30.00
2018-06-19T15:30:15.716Z,30.20
2018-06-19T15:35:13.251Z,30.40
2018-06-19T15:37:42.490Z,30.60
2018-06-19T15:42:40.136Z,31.00
2018-06-19T15:45:09.104Z,31.00
2018-06-19T15:47:38.068Z,31.30
2018-06-19T15:50:07.118Z,31.50
2018-06-19T15:52:36.099Z,31.50
2018-06-19T15:55:05.079Z,31.40
2018-06-19T15:57:34.006Z,31.20
2018-06-19T16:02:31.620Z,31.00
2018-06-19T16:05:00.518Z,31.10
2018-06-19T16:07:29.476Z,31.30
2018-06-19T16:09:58.408Z,31.50
2018-06-19T16:12:27.338Z,31.70
2018-06-19T16:14:56.325Z,31.30
2018-06-19T16:17:25.266Z,31.30
2018-06-19T16:19:54.239Z,30.90
2018-06-19T16:22:23.145Z,30.80
2018-06-19T16:24:52.064Z,31.00
2018-06-19T16:27:21.017Z,31.20
2018-06-19T16:29:49.949Z,31.20
2018-06-19T16:32:18.869Z,31.00
2018-06-19T16:34:47.797Z,30.70
2018-06-19T16:37:16.789Z,30.70
2018-06-19T16:39:45.823Z,30.70
2018-06-19T16:42:14.812Z,30.70
2018-06-19T16:44:43.757Z,30.60
2018-06-19T16:47:12.681Z,30.50
2018-06-19T16:49:41.743Z,30.60
2018-06-19T16:52:10.682Z,30.80
2018-06-19T16:54:39.639Z,30.80
2018-06-19T16:57:08.573Z,30.80
2018-06-19T16:59:37.520Z,30.90
2018-06-19T17:02:06.562Z,30.70
2018-06-19T17:04:35.487Z,30.50
2018-06-19T17:07:04.395Z,30.20
2018-06-19T17:09:33.423Z,30.00
2018-06-19T17:12:02.353Z,29.90
2018-06-19T17:16:59.855Z,29.50
2018-06-19T17:19:28.769Z,29.40
2018-06-19T17:21:57.673Z,29.20
2018-06-19T17:24:26.745Z,29.00
2018-06-19T17:26:55.711Z,28.80
2018-06-19T17:29:25.224Z,28.70
2018-06-19T17:31:54.246Z,28.60
2018-06-19T17:34:23.260Z,28.50
2018-06-19T17:36:52.370Z,28.40
2018-06-19T17:41:50.214Z,28.10
2018-06-19T17:44:19.321Z,28.10
2018-06-19T17:46:48.230Z,28.00
2018-06-19T17:51:45.721Z,27.80
2018-06-19T17:54:14.603Z,27.70
2018-06-19T17:59:12.109Z,27.50
2018-06-19T18:01:41.011Z,27.40
2018-06-19T18:04:09.908Z,27.40
2018-06-19T18:06:38.850Z,27.20
2018-06-19T18:09:09.828Z,27.10
2018-06-19T18:11:38.839Z,27.00
2018-06-19T18:14:07.766Z,26.90
2018-06-19T18:16:36.700Z,26.80
2018-06-19T18:19:05.645Z,26.70
2018-06-19T18:24:03.129Z,26.50
2018-06-19T18:26:32.100Z,26.50
2018-06-19T18:29:01.165Z,26.40
2018-06-19T18:31:30.110Z,26.30
2018-06-19T18:33:59.028Z,26.30
2018-06-19T18:36:27.922Z,26.20
2018-06-19T18:38:56.896Z,26.20
2018-06-19T18:41:25.888Z,26.10
2018-06-19T18:43:54.856Z,26.00
2018-06-19T18:48:52.510Z,26.00
2018-06-19T18:51:21.452Z,26.00
2018-06-19T18:53:50.354Z,25.90
2018-06-19T18:56:19.258Z,25.90
2018-06-19T18:58:48.148Z,25.80
2018-06-19T19:01:17.033Z,25.70
2018-06-19T19:03:46.771Z,25.70
2018-06-19T19:06:15.998Z,25.70
2018-06-19T19:08:44.952Z,25.60
2018-06-19T19:11:13.925Z,25.60
2018-06-19T19:13:42.875Z,25.60
2018-06-19T19:17:17.433Z,25.50
2018-06-19T19:19:46.352Z,25.50
2018-06-19T19:22:15.281Z,25.40
2018-06-19T19:27:17.935Z,25.20
2018-06-19T19:29:50.308Z,25.20
2018-06-19T19:32:20.457Z,25.10
2018-06-19T19:39:52.570Z,25.00
2018-06-19T19:42:21.589Z,24.90
2018-06-19T19:44:50.584Z,24.90
2018-06-19T19:47:24.874Z,24.80
2018-06-19T19:49:53.887Z,24.80
2018-06-19T19:52:22.859Z,24.70
2018-06-19T19:54:51.833Z,24.70
2018-06-19T20:02:23.376Z,24.50
2018-06-19T20:04:52.354Z,24.50
2018-06-19T20:07:21.434Z,24.40
2018-06-19T20:09:50.471Z,24.40
2018-06-19T20:12:19.545Z,24.30
2018-06-19T20:14:48.531Z,24.20
2018-06-19T20:17:17.515Z,24.20
2018-06-19T20:19:46.440Z,24.20
2018-06-19T20:22:15.506Z,24.10
2018-06-19T20:24:45.101Z,24.10
2018-06-19T20:27:14.001Z,24.00
2018-06-19T20:29:43.038Z,24.00
2018-06-19T20:32:12.050Z,23.90
2018-06-19T20:37:09.725Z,23.90
2018-06-19T20:42:07.133Z,23.80
2018-06-19T20:44:36.063Z,23.80
2018-06-19T20:47:05.056Z,23.80
2018-06-19T20:49:33.944Z,23.70
2018-06-19T20:52:02.897Z,23.70
2018-06-19T20:54:31.853Z,23.70
2018-06-19T20:57:00.819Z,23.60
2018-06-19T20:59:30.065Z,23.60
2018-06-19T21:01:59.014Z,23.50
2018-06-19T21:04:28.499Z,23.50
2018-06-19T21:06:57.739Z,23.40
2018-06-19T21:11:55.857Z,23.40
2018-06-19T21:14:24.794Z,23.40
2018-06-19T21:16:53.736Z,23.40
2018-06-19T21:19:22.707Z,23.30
2018-06-19T21:24:20.269Z,23.30
2018-06-19T21:29:17.865Z,23.20
2018-06-19T21:31:46.826Z,23.20
2018-06-19T21:34:15.808Z,23.10
2018-06-19T21:36:44.787Z,23.00
2018-06-19T21:39:13.765Z,23.00
2018-06-19T21:41:42.739Z,23.00
2018-06-19T21:44:11.791Z,22.90
2018-06-19T21:46:40.815Z,22.80
2018-06-19T21:49:09.756Z,22.80
2018-06-19T21:51:38.720Z,22.70
2018-06-19T21:54:07.715Z,22.70
2018-06-19T21:56:36.741Z,22.70
2018-06-19T21:59:05.793Z,22.70
2018-06-19T22:01:34.754Z,22.70
2018-06-19T22:04:03.801Z,22.60
2018-06-19T22:06:32.804Z,22.60
2018-06-19T22:09:01.950Z,22.50
2018-06-19T22:11:30.914Z,22.50
2018-06-19T22:13:59.921Z,22.50
2018-06-19T22:16:28.875Z,22.40
2018-06-19T22:18:57.857Z,22.20
2018-06-19T22:21:26.826Z,22.10
2018-06-19T22:23:55.766Z,22.00
2018-06-19T22:26:24.732Z,21.90
2018-06-19T22:28:53.658Z,21.80
2018-06-19T22:31:22.683Z,21.80
2018-06-19T22:33:51.652Z,21.80
2018-06-19T22:38:49.166Z,21.60
2018-06-19T22:41:18.124Z,21.50
2018-06-19T22:43:47.188Z,21.40
2018-06-19T22:46:16.172Z,21.30
2018-06-19T22:48:45.104Z,21.20
2018-06-19T22:51:14.026Z,21.20
2018-06-19T22:53:42.984Z,21.20
2018-06-19T22:56:11.915Z,21.10
2018-06-19T22:58:40.975Z,21.00
2018-06-19T23:01:10.006Z,21.00
2018-06-19T23:03:38.966Z,20.90
2018-06-19T23:06:07.912Z,20.90
2018-06-19T23:08:36.887Z,20.90
2018-06-19T23:11:05.863Z,20.90
2018-06-19T23:13:34.796Z,20.90
2018-06-19T23:16:03.744Z,20.90
2018-06-19T23:18:32.692Z,20.80
2018-06-19T23:25:58.750Z,20.80
2018-06-19T23:30:56.244Z,20.70
2018-06-19T23:33:25.309Z,20.70
2018-06-19T23:38:22.773Z,20.50
2018-06-19T23:40:51.741Z,20.40
2018-06-19T23:43:20.914Z,20.30
2018-06-19T23:45:49.998Z,20.20
2018-06-19T23:48:19.059Z,20.10
2018-06-19T23:53:16.658Z,20.10
2018-06-19T23:55:45.601Z,20.00
2018-06-19T23:58:14.512Z,19.90
